createdAt,value
2017-03-28T00:00:03.614Z,1010.18
2017-03-28T00:15:03.389Z,1010.11
2017-03-28T00:30:03.209Z,1010.09
2017-03-28T00:45:03.156Z,1010.03
2017-03-28T01:00:03.037Z,1009.85
2017-03-28T01:15:02.834Z,1009.67
2017-03-28T01:30:02.823Z,1009.46
2017-03-28T01:45:03.676Z,1009.4
2017-03-28T02:00:03.353Z,1009.22
2017-03-28T02:15:03.293Z,1009.11
2017-03-28T02:30:03.089Z,1009
2017-03-28T02:45:02.743Z,1008.83
2017-03-28T03:00:03.347Z,1008.74
2017-03-28T03:15:02.948Z,1008.73
2017-03-28T03:30:02.769Z,1008.68
2017-03-28T03:45:03.668Z,1008.72
2017-03-28T04:00:03.379Z,1008.58
2017-03-28T04:15:03.260Z,1008.56
2017-03-28T04:30:03.481Z,1008.62
2017-03-28T04:45:03.763Z,1008.62
2017-03-28T05:00:03.851Z,1008.65
2017-03-28T05:15:03.475Z,1008.66
2017-03-28T05:30:03.342Z,1008.61
2017-03-28T05:45:02.946Z,1008.7
2017-03-28T06:00:02.599Z,1008.72
2017-03-28T06:15:02.976Z,1008.75
2017-03-28T06:30:03.106Z,1008.72
2017-03-28T06:45:03.214Z,1008.76
2017-03-28T07:00:03.339Z,1008.75
2017-03-28T07:15:02.738Z,1008.71
2017-03-28T07:30:02.869Z,1008.68
2017-03-28T07:45:03.500Z,1008.62
2017-03-28T08:00:03.378Z,1008.75
2017-03-28T08:15:03.326Z,1008.79
2017-03-28T08:30:03.180Z,1008.83
2017-03-28T08:45:03.203Z,1008.8
2017-03-28T09:00:02.881Z,1008.89
2017-03-28T09:15:02.748Z,1008.78
2017-03-28T09:30:02.614Z,1008.57
2017-03-28T09:45:08.651Z,1008.44
2017-03-28T10:00:03.267Z,1008.45
2017-03-28T10:15:02.528Z,1008.33
2017-03-28T10:30:03.601Z,1008.34
2017-03-28T10:45:03.364Z,1008.44
2017-03-28T11:00:03.245Z,1008.26
2017-03-28T11:15:02.874Z,1008.16
2017-03-28T11:30:02.801Z,1008.12
2017-03-28T11:45:02.680Z,1007.98
2017-03-28T12:00:03.421Z,1007.82
2017-03-28T12:15:02.842Z,1007.77
2017-03-28T12:30:02.713Z,1007.64
2017-03-28T12:45:03.633Z,1007.51
2017-03-28T13:00:03.370Z,1007.48
2017-03-28T13:15:03.026Z,1007.29
2017-03-28T13:30:03.007Z,1007.23
2017-03-28T13:45:02.649Z,1007.13
2017-03-28T14:00:03.334Z,1006.96
2017-03-28T14:15:03.083Z,1007.07
2017-03-28T14:30:03.303Z,1006.92
2017-03-28T14:45:08.044Z,1006.95
2017-03-28T15:00:02.954Z,1006.84
2017-03-28T15:15:03.507Z,1006.83
2017-03-28T15:30:03.614Z,1006.73
2017-03-28T15:45:04.080Z,1006.79
2017-03-28T16:00:02.899Z,1007.05
2017-03-28T16:15:02.812Z,1006.9
2017-03-28T16:30:03.241Z,1006.95
2017-03-28T16:45:03.334Z,1007.08
2017-03-28T17:00:03.193Z,1007.08
2017-03-28T17:15:08.296Z,1007.06
2017-03-28T17:30:08.226Z,1007.19
2017-03-28T17:45:08.491Z,1007.27
2017-03-28T18:00:03.118Z,1007.44
2017-03-28T18:15:03.387Z,1007.59
2017-03-28T18:30:03.567Z,1007.62
2017-03-28T18:45:03.272Z,1007.77
2017-03-28T19:00:03.223Z,1007.85
2017-03-28T19:15:02.859Z,1007.98
2017-03-28T19:30:03.106Z,1008.04
2017-03-28T19:45:02.761Z,1008.02
2017-03-28T20:45:03.985Z,1008.24
2017-03-28T21:00:02.584Z,1008.25
2017-03-28T21:15:03.298Z,1008.3
2017-03-28T21:30:03.180Z,1008.48
2017-03-28T21:45:03.039Z,1008.51
2017-03-28T22:00:02.937Z,1008.59
2017-03-28T22:15:03.061Z,1008.55
2017-03-28T22:30:03.511Z,1008.57
2017-03-28T22:45:03.081Z,1008.73
2017-03-28T23:00:03.482Z,1008.68
2017-03-28T23:15:03.147Z,1008.74
2017-03-28T23:30:02.722Z,1008.62
2017-03-28T23:45:03.140Z,1008.6
